Time;durP1;ratioP1;P1;durP2;ratioP2;P2;SDS_P1;SDS_P2;PMS_P1;PMS_P2;Temp;Humidity;BMP_temperature;BMP_pressure;BME280_temperature;BME280_humidity;BME280_pressure;Samples;Min_cycle;Max_cycle;Signal;HPM_P1;HPM_P2
2021/10/08 00:00:08;;;;;;;0.40;0.30;;;;;;;12.14;100.00;102608.78;5075878;28;20468;-69
2021/10/08 00:02:35;;;;;;;0.40;0.30;;;;;;;12.13;100.00;102607.97;5075900;28;20441;-69
2021/10/08 00:05:01;;;;;;;0.40;0.30;;;;;;;12.12;100.00;102600.88;5075891;28;20485;-69
2021/10/08 00:07:28;;;;;;;0.40;0.20;;;;;;;12.19;100.00;102597.94;5075795;28;20445;-69
2021/10/08 00:09:54;;;;;;;0.40;0.30;;;;;;;12.20;100.00;102605.81;5075725;28;20786;-69
2021/10/08 00:12:22;;;;;;;0.40;0.20;;;;;;;12.18;100.00;102599.84;5075461;28;20441;-69
2021/10/08 00:14:48;;;;;;;0.40;0.20;;;;;;;12.24;100.00;102597.97;5075629;28;20433;-69
2021/10/08 00:17:15;;;;;;;0.40;0.30;;;;;;;12.23;100.00;102602.59;5076018;28;20437;-69
2021/10/08 00:19:41;;;;;;;0.50;0.50;;;;;;;12.11;100.00;102599.25;5075555;28;20526;-69
2021/10/08 00:22:07;;;;;;;0.40;0.30;;;;;;;12.08;100.00;102602.47;5075426;28;20448;-69
2021/10/08 00:24:34;;;;;;;0.40;0.20;;;;;;;12.03;100.00;102605.16;5075225;28;20480;-69
2021/10/08 00:27:00;;;;;;;0.40;0.30;;;;;;;11.95;100.00;102605.63;5075493;28;20445;-69
2021/10/08 00:29:28;;;;;;;0.40;0.30;;;;;;;11.81;100.00;102605.22;5075355;28;20457;-69
2021/10/08 00:31:55;;;;;;;0.40;0.20;;;;;;;11.71;100.00;102605.16;5076775;28;20448;-69
2021/10/08 00:34:21;;;;;;;0.40;0.30;;;;;;;11.62;100.00;102599.38;5074991;28;20461;-69
2021/10/08 00:36:47;;;;;;;0.40;0.30;;;;;;;11.59;100.00;102602.59;5075406;28;20446;-69
2021/10/08 00:39:14;;;;;;;1.27;0.63;;;;;;;11.44;100.00;102600.56;5075180;28;20465;-69
2021/10/08 00:41:40;;;;;;;0.40;0.30;;;;;;;11.35;100.00;102602.13;5075246;28;20445;-69
2021/10/08 00:44:07;;;;;;;0.40;0.30;;;;;;;11.28;100.00;102596.88;5075087;28;20473;-69
2021/10/08 00:46:35;;;;;;;0.40;0.30;;;;;;;11.25;100.00;102597.41;5075188;28;20448;-69
2021/10/08 00:49:02;;;;;;;0.40;0.30;;;;;;;11.15;100.00;102596.47;5074990;28;20467;-69
2021/10/08 00:51:28;;;;;;;0.40;0.30;;;;;;;11.15;100.00;102589.16;5074979;28;20446;-69
2021/10/08 00:53:55;;;;;;;0.40;0.30;;;;;;;11.18;100.00;102593.25;5074640;28;20433;-69
2021/10/08 00:56:22;;;;;;;0.40;0.30;;;;;;;11.16;100.00;102592.72;5074916;28;20449;-69
2021/10/08 00:58:50;;;;;;;0.40;0.30;;;;;;;11.08;100.00;102602.94;5074484;28;20970;-69
2021/10/08 01:01:16;;;;;;;0.40;0.30;;;;;;;11.06;100.00;102601.53;5074798;28;20652;-69
2021/10/08 01:03:45;;;;;;;0.40;0.30;;;;;;;11.04;100.00;102598.28;5074456;28;21020;-69
2021/10/08 01:06:12;;;;;;;0.40;0.30;;;;;;;11.06;100.00;102587.97;5074343;28;20488;-69
2021/10/08 01:08:39;;;;;;;0.40;0.20;;;;;;;11.03;100.00;102592.03;5074293;28;20468;-69
2021/10/08 01:11:05;;;;;;;0.40;0.30;;;;;;;11.01;100.00;102591.44;5074618;28;20494;-69
2021/10/08 01:13:32;;;;;;;0.40;0.30;;;;;;;10.98;100.00;102593.84;5074527;28;20864;-69
2021/10/08 01:15:58;;;;;;;0.50;0.30;;;;;;;10.89;100.00;102589.94;5074253;28;20449;-69
2021/10/08 01:18:25;;;;;;;0.40;0.30;;;;;;;10.87;100.00;102592.91;5074364;28;20468;-69
2021/10/08 01:20:54;;;;;;;0.40;0.30;;;;;;;10.78;100.00;102597.16;5074371;28;20480;-69
2021/10/08 01:23:20;;;;;;;0.40;0.30;;;;;;;10.64;100.00;102599.41;5074111;28;20453;-69
2021/10/08 01:25:50;;;;;;;0.40;0.30;;;;;;;10.52;100.00;102596.81;5073907;28;21010;-69
2021/10/08 01:28:19;;;;;;;0.40;0.30;;;;;;;10.46;100.00;102605.13;5074203;28;20460;-69
2021/10/08 01:30:45;;;;;;;0.40;0.30;;;;;;;10.33;100.00;102607.13;5074180;28;20495;-69
2021/10/08 01:33:12;;;;;;;0.40;0.30;;;;;;;10.27;100.00;102604.59;5074212;28;20449;-69
2021/10/08 01:35:38;;;;;;;0.40;0.30;;;;;;;10.24;100.00;102607.78;5073329;28;20441;-69
2021/10/08 01:38:06;;;;;;;0.40;0.30;;;;;;;10.18;100.00;102604.19;5074017;28;20441;-69
2021/10/08 01:40:33;;;;;;;0.40;0.30;;;;;;;10.21;100.00;102600.16;5074108;28;20446;-69
2021/10/08 01:43:00;;;;;;;0.40;0.30;;;;;;;10.20;100.00;102599.31;5073998;28;20448;-69
2021/10/08 01:45:26;;;;;;;0.40;0.30;;;;;;;10.17;100.00;102602.53;5074011;28;20481;-69
2021/10/08 01:47:52;;;;;;;0.40;0.30;;;;;;;10.16;100.00;102606.31;5073714;28;20839;-69
2021/10/08 01:50:19;;;;;;;0.40;0.30;;;;;;;10.18;100.00;102601.47;5073764;28;20465;-69
2021/10/08 01:52:45;;;;;;;0.40;0.30;;;;;;;10.14;100.00;102594.91;5073898;28;20449;-69
2021/10/08 01:55:13;;;;;;;0.40;0.30;;;;;;;10.14;100.00;102596.78;5073837;28;20520;-69
2021/10/08 01:57:40;;;;;;;0.40;0.30;;;;;;;10.16;100.00;102602.78;5073826;28;20448;-69
2021/10/08 02:00:07;;;;;;;0.40;0.30;;;;;;;10.18;100.00;102597.91;5073625;28;20476;-69
2021/10/08 02:02:34;;;;;;;0.73;0.73;;;;;;;10.16;100.00;102595.47;5073706;28;20491;-69
2021/10/08 02:05:00;;;;;;;0.40;0.30;;;;;;;10.08;100.00;102598.59;5073528;28;20843;-69
2021/10/08 02:07:27;;;;;;;0.40;0.27;;;;;;;10.03;100.00;102588.50;5073615;28;20437;-68
2021/10/08 02:09:53;;;;;;;0.40;0.30;;;;;;;10.04;100.00;102592.84;5073502;28;20457;-69
2021/10/08 02:12:21;;;;;;;0.40;0.30;;;;;;;10.02;100.00;102588.78;5073566;28;20457;-69
2021/10/08 02:14:47;;;;;;;0.40;0.30;;;;;;;10.02;100.00;102599.59;5073187;28;20857;-69
2021/10/08 02:17:14;;;;;;;0.40;0.30;;;;;;;9.94;100.00;102598.13;5073448;28;20479;-69
2021/10/08 02:19:40;;;;;;;0.40;0.30;;;;;;;9.94;100.00;102597.31;5073416;28;20511;-68
2021/10/08 02:22:07;;;;;;;0.40;0.30;;;;;;;9.86;100.00;102591.22;5073522;28;20448;-70
2021/10/08 02:24:34;;;;;;;0.40;0.30;;;;;;;9.72;100.00;102589.91;5073358;28;20445;-70
2021/10/08 02:27:00;;;;;;;1.03;1.03;;;;;;;9.73;100.00;102602.38;5073326;28;20444;-70
2021/10/08 02:29:28;;;;;;;0.40;0.30;;;;;;;9.63;100.00;102596.00;5073225;28;20488;-69
2021/10/08 02:31:55;;;;;;;1.53;1.43;;;;;;;9.56;100.00;102596.13;5073304;28;20471;-68
2021/10/08 02:34:21;;;;;;;0.40;0.30;;;;;;;9.57;100.00;102601.31;5073225;28;20445;-69
2021/10/08 02:36:48;;;;;;;0.40;0.30;;;;;;;9.62;100.00;102608.69;5073517;28;20619;-69
2021/10/08 02:39:14;;;;;;;0.40;0.30;;;;;;;9.60;100.00;102614.34;5073131;28;20465;-69
2021/10/08 02:41:41;;;;;;;0.40;0.30;;;;;;;9.63;100.00;102613.03;5073295;28;20437;-69
2021/10/08 02:44:07;;;;;;;0.40;0.30;;;;;;;9.56;100.00;102613.22;5073165;28;20468;-69
2021/10/08 02:46:35;;;;;;;0.40;0.30;;;;;;;9.54;100.00;102619.91;5076805;28;20485;-69
2021/10/08 02:49:01;;;;;;;0.40;0.30;;;;;;;9.59;100.00;102620.81;5079718;28;20457;-69
2021/10/08 02:51:28;;;;;;;0.50;0.50;;;;;;;9.62;100.00;102624.94;5079743;28;20448;-69
2021/10/08 02:53:54;;;;;;;0.40;0.30;;;;;;;9.59;100.00;102622.69;5079715;28;20451;-69
2021/10/08 02:56:21;;;;;;;0.40;0.30;;;;;;;9.58;100.00;102629.19;5079735;28;20433;-69
2021/10/08 02:58:47;;;;;;;0.40;0.30;;;;;;;9.54;100.00;102626.13;5079605;28;20465;-69
2021/10/08 03:01:14;;;;;;;0.40;0.30;;;;;;;9.56;100.00;102631.28;5079341;28;21025;-69
2021/10/08 03:03:41;;;;;;;0.40;0.30;;;;;;;9.61;100.00;102631.41;5079657;28;20441;-69
2021/10/08 03:06:08;;;;;;;0.40;0.30;;;;;;;9.60;100.00;102632.47;5079561;28;20476;-69
2021/10/08 03:08:34;;;;;;;0.40;0.30;;;;;;;9.62;100.00;102632.22;5079523;28;20468;-69
2021/10/08 03:11:01;;;;;;;0.40;0.30;;;;;;;9.64;100.00;102630.91;5079590;28;20437;-69
2021/10/08 03:13:27;;;;;;;0.40;0.30;;;;;;;9.68;100.00;102633.94;5079544;28;20441;-69
2021/10/08 03:15:54;;;;;;;0.40;0.30;;;;;;;9.57;100.00;102638.38;5079517;28;20441;-69
2021/10/08 03:18:20;;;;;;;0.63;0.60;;;;;;;9.59;100.00;102634.34;5079486;28;20820;-69
2021/10/08 03:20:48;;;;;;;0.40;0.30;;;;;;;9.56;100.00;102634.84;5079494;28;20441;-69
2021/10/08 03:23:14;;;;;;;0.40;0.30;;;;;;;9.53;100.00;102634.50;5079197;28;20456;-69
2021/10/08 03:25:41;;;;;;;0.40;0.30;;;;;;;9.57;100.00;102636.50;5079461;28;20551;-69
2021/10/08 03:28:09;;;;;;;0.40;0.30;;;;;;;9.66;100.00;102636.91;5079396;28;20452;-69
2021/10/08 03:30:35;;;;;;;0.40;0.30;;;;;;;9.69;100.00;102639.09;5079423;28;20535;-69
2021/10/08 03:33:02;;;;;;;0.40;0.27;;;;;;;9.71;100.00;102634.28;5079390;28;20526;-69
2021/10/08 03:35:28;;;;;;;0.40;0.30;;;;;;;9.74;100.00;102635.66;5079374;28;20456;-69
2021/10/08 03:38:02;;;;;;;0.40;0.30;;;;;;;9.85;100.00;102637.50;5079238;28;20437;-70
2021/10/08 03:40:30;;;;;;;0.40;0.20;;;;;;;9.88;100.00;102636.19;5079542;28;20453;-69
2021/10/08 03:42:59;;;;;;;0.40;0.30;;;;;;;10.02;100.00;102637.50;5079366;28;20447;-69
2021/10/08 03:45:31;;;;;;;0.40;0.20;;;;;;;10.15;100.00;102642.59;5079164;28;20484;-69
2021/10/08 03:48:05;;;;;;;0.40;0.30;;;;;;;10.28;100.00;102653.13;5079308;28;20426;-70
2021/10/08 03:50:32;;;;;;;0.40;0.30;;;;;;;10.38;100.00;102651.63;5079264;28;20425;-69
2021/10/08 03:53:00;;;;;;;0.40;0.30;;;;;;;10.45;100.00;102658.50;5079183;28;20480;-69
2021/10/08 03:55:26;;;;;;;0.40;0.27;;;;;;;10.56;100.00;102656.75;5079264;28;20445;-69
2021/10/08 03:57:53;;;;;;;0.40;0.30;;;;;;;10.66;100.00;102665.00;5076835;28;20444;-69
2021/10/08 04:00:19;;;;;;;0.40;0.30;;;;;;;10.78;100.00;102665.72;5075881;28;20473;-69
2021/10/08 04:02:46;;;;;;;0.40;0.20;;;;;;;10.86;100.00;102668.00;5075889;28;20441;-70
2021/10/08 04:05:12;;;;;;;0.40;0.30;;;;;;;10.90;100.00;102668.34;5075489;28;21051;-69
2021/10/08 04:07:38;;;;;;;2.30;1.90;;;;;;;10.96;100.00;102670.03;5075804;28;20433;-68
2021/10/08 04:10:07;;;;;;;0.40;0.30;;;;;;;11.00;100.00;102665.75;5075426;28;20971;-69
2021/10/08 04:12:34;;;;;;;0.40;0.30;;;;;;;11.08;100.00;102672.63;5076221;28;20441;-69
2021/10/08 04:15:00;;;;;;;0.40;0.30;;;;;;;11.07;100.00;102673.72;5075737;28;20442;-69
2021/10/08 04:17:26;;;;;;;0.40;0.30;;;;;;;11.06;100.00;102669.31;5075638;28;20813;-69
2021/10/08 04:19:53;;;;;;;0.40;0.20;;;;;;;11.08;100.00;102670.72;5075635;28;20540;-69
2021/10/08 04:22:19;;;;;;;0.43;0.40;;;;;;;11.13;100.00;102671.88;5075422;28;20441;-68
2021/10/08 04:24:46;;;;;;;0.40;0.30;;;;;;;11.12;100.00;102676.47;5075580;28;20426;-68
2021/10/08 04:27:14;;;;;;;0.40;0.30;;;;;;;11.13;100.00;102672.69;5075409;28;20477;-68
2021/10/08 04:29:40;;;;;;;1.53;1.43;;;;;;;11.22;100.00;102673.88;5075396;28;20465;-69
2021/10/08 04:32:07;;;;;;;0.40;0.30;;;;;;;11.26;100.00;102675.00;5075073;28;20499;-69
2021/10/08 04:34:33;;;;;;;6.33;2.50;;;;;;;11.34;100.00;102677.28;5075350;28;20441;-69
2021/10/08 04:37:00;;;;;;;0.40;0.20;;;;;;;11.44;100.00;102673.03;5075297;28;20444;-69
2021/10/08 04:39:26;;;;;;;3.13;2.93;;;;;;;11.46;100.00;102679.00;5074688;28;20461;-69
2021/10/08 04:41:53;;;;;;;0.40;0.30;;;;;;;11.54;100.00;102682.09;5075204;28;20839;-69
2021/10/08 04:44:20;;;;;;;0.40;0.30;;;;;;;11.59;100.00;102681.31;5074854;28;20978;-69
2021/10/08 04:46:47;;;;;;;0.40;0.30;;;;;;;11.64;100.00;102675.94;5075055;28;20485;-69
2021/10/08 04:49:13;;;;;;;0.40;0.30;;;;;;;11.68;100.00;102678.97;5074897;28;20465;-68
2021/10/08 04:51:40;;;;;;;0.50;0.50;;;;;;;11.68;100.00;102685.22;5074717;28;20441;-69
2021/10/08 04:54:06;;;;;;;0.40;0.30;;;;;;;11.58;100.00;102688.63;5074750;28;20441;-69
2021/10/08 04:56:33;;;;;;;0.40;0.30;;;;;;;11.65;100.00;102684.94;5074675;28;20816;-69
2021/10/08 04:59:00;;;;;;;0.40;0.30;;;;;;;11.64;100.00;102689.50;5074499;28;20496;-69
2021/10/08 05:01:29;;;;;;;0.40;0.30;;;;;;;11.66;100.00;102684.66;5074334;28;20946;-69
2021/10/08 05:03:55;;;;;;;0.40;0.30;;;;;;;11.69;100.00;102686.88;5074523;28;20441;-69
2021/10/08 05:06:22;;;;;;;0.40;0.30;;;;;;;11.64;100.00;102692.22;5074599;28;20484;-69
2021/10/08 05:08:49;;;;;;;0.40;0.30;;;;;;;11.62;100.00;102694.38;5073957;28;20507;-69
2021/10/08 05:11:16;;;;;;;0.40;0.40;;;;;;;11.62;100.00;102692.50;5074021;28;20463;-69
2021/10/08 05:13:42;;;;;;;0.40;0.30;;;;;;;11.57;100.00;102691.63;5074610;28;20559;-69
2021/10/08 05:16:09;;;;;;;2.10;1.90;;;;;;;11.55;100.00;102688.31;5074461;28;20448;-69
2021/10/08 05:18:36;;;;;;;0.40;0.30;;;;;;;11.56;100.00;102690.81;5074419;28;20508;-69
2021/10/08 05:21:03;;;;;;;0.40;0.30;;;;;;;11.53;100.00;102690.50;5074428;28;20495;-69
2021/10/08 05:23:29;;;;;;;0.40;0.20;;;;;;;11.56;100.00;102693.53;5074102;28;20461;-69
2021/10/08 05:25:56;;;;;;;0.40;0.30;;;;;;;11.61;100.00;102699.00;5074234;28;20477;-69
2021/10/08 05:28:22;;;;;;;0.40;0.30;;;;;;;11.66;100.00;102694.69;5074211;28;20441;-69
2021/10/08 05:30:49;;;;;;;2.20;2.10;;;;;;;11.68;100.00;102696.06;5073896;28;20883;-69
2021/10/08 05:33:15;;;;;;;0.40;0.20;;;;;;;11.71;100.00;102698.28;5074156;28;20807;-69
2021/10/08 05:35:43;;;;;;;0.90;0.63;;;;;;;11.78;100.00;102701.63;5074146;28;20444;-69
2021/10/08 05:38:09;;;;;;;0.40;0.30;;;;;;;11.78;100.00;102698.91;5073973;28;20451;-69
2021/10/08 05:40:36;;;;;;;0.40;0.30;;;;;;;11.80;100.00;102707.59;5074016;28;20437;-69
2021/10/08 05:43:03;;;;;;;0.40;0.30;;;;;;;11.81;100.00;102714.66;5074006;28;20448;-69
2021/10/08 05:45:30;;;;;;;0.40;0.30;;;;;;;11.82;100.00;102704.63;5073860;28;20444;-69
2021/10/08 05:47:56;;;;;;;1.47;1.37;;;;;;;11.79;100.00;102716.00;5073525;28;20946;-69
2021/10/08 05:50:23;;;;;;;0.40;0.30;;;;;;;11.83;100.00;102712.56;5073366;28;21024;-69
2021/10/08 05:52:50;;;;;;;0.40;0.30;;;;;;;11.86;100.00;102708.47;5073841;28;20445;-69
2021/10/08 05:55:20;;;;;;;0.40;0.30;;;;;;;11.86;100.00;102712.03;5073782;28;20437;-69
2021/10/08 05:57:46;;;;;;;0.40;0.30;;;;;;;11.88;100.00;102711.78;5073401;28;20869;-69
2021/10/08 06:00:13;;;;;;;0.40;0.30;;;;;;;11.78;100.00;102717.91;5073622;28;20470;-69
2021/10/08 06:02:40;;;;;;;0.40;0.30;;;;;;;11.76;100.00;102719.22;5073653;28;20460;-69
2021/10/08 06:05:06;;;;;;;0.40;0.30;;;;;;;11.73;100.00;102715.16;5073699;28;20449;-71
2021/10/08 06:07:33;;;;;;;0.40;0.30;;;;;;;11.76;100.00;102722.75;5073517;28;20477;-71
2021/10/08 06:10:01;;;;;;;0.50;0.40;;;;;;;11.77;100.00;102724.38;5073470;28;20468;-70
2021/10/08 06:12:27;;;;;;;0.50;0.30;;;;;;;11.84;100.00;102725.03;5073474;28;20445;-69
2021/10/08 06:14:54;;;;;;;0.40;0.30;;;;;;;11.90;100.00;102727.81;5073479;28;20445;-69
2021/10/08 06:17:20;;;;;;;0.40;0.27;;;;;;;11.94;100.00;102723.50;5073395;28;20857;-70
2021/10/08 06:19:46;;;;;;;0.53;0.53;;;;;;;11.98;100.00;102732.78;5073300;28;20461;-70
2021/10/08 06:22:13;;;;;;;0.50;0.50;;;;;;;12.00;100.00;102727.94;5072453;28;20931;-69
2021/10/08 06:24:39;;;;;;;0.40;0.30;;;;;;;12.01;100.00;102738.53;5073320;28;20425;-70
2021/10/08 06:27:07;;;;;;;0.50;0.30;;;;;;;12.03;100.00;102738.25;5073208;28;20539;-70
2021/10/08 06:29:34;;;;;;;0.40;0.30;;;;;;;12.07;100.00;102747.53;5073198;28;20465;-70
2021/10/08 06:32:00;;;;;;;0.40;0.30;;;;;;;12.06;100.00;102749.44;5073314;28;20516;-70
2021/10/08 06:34:27;;;;;;;4.63;4.23;;;;;;;12.06;100.00;102740.47;5072869;28;20844;-70
2021/10/08 06:36:53;;;;;;;0.40;0.20;;;;;;;12.09;100.00;102746.22;5073235;28;20487;-69
2021/10/08 06:39:20;;;;;;;0.40;0.30;;;;;;;12.09;100.00;102748.09;5073181;28;20556;-69
2021/10/08 06:41:46;;;;;;;0.40;0.30;;;;;;;12.06;100.00;102757.56;5072871;28;20959;-69
2021/10/08 06:44:14;;;;;;;1.47;1.43;;;;;;;11.91;100.00;102760.16;5073197;28;20437;-69
2021/10/08 06:46:40;;;;;;;2.30;1.00;;;;;;;11.85;100.00;102759.25;5073073;28;20481;-69
2021/10/08 06:49:07;;;;;;;0.40;0.30;;;;;;;11.70;100.00;102756.38;5073021;28;20468;-72
2021/10/08 06:51:34;;;;;;;0.40;0.30;;;;;;;11.76;100.00;102765.38;5073104;28;20472;-71
2021/10/08 06:54:01;;;;;;;0.40;0.40;;;;;;;11.77;100.00;102762.41;5073125;28;20496;-70
2021/10/08 06:56:29;;;;;;;3.90;3.60;;;;;;;11.78;100.00;102768.69;5073035;28;20465;-70
2021/10/08 06:58:56;;;;;;;0.40;0.30;;;;;;;11.79;100.00;102770.31;5072676;28;20983;-70
2021/10/08 07:01:24;;;;;;;0.40;0.30;;;;;;;11.81;100.00;102770.88;5072946;28;20559;-69
2021/10/08 07:03:50;;;;;;;1.07;1.03;;;;;;;11.86;100.00;102781.81;5073060;28;20529;-69
2021/10/08 07:06:17;;;;;;;0.40;0.30;;;;;;;11.93;100.00;102782.44;5072839;28;20485;-69
2021/10/08 07:08:43;;;;;;;1.03;1.03;;;;;;;11.99;100.00;102786.03;5072884;28;20551;-69
2021/10/08 07:11:10;;;;;;;0.40;0.30;;;;;;;12.07;100.00;102782.84;5072942;28;20445;-69
2021/10/08 07:13:37;;;;;;;0.40;0.30;;;;;;;12.24;100.00;102794.41;5072916;28;20434;-69
2021/10/08 07:16:04;;;;;;;0.40;0.30;;;;;;;12.30;100.00;102790.66;5072586;28;20445;-69
2021/10/08 07:18:36;;;;;;;0.40;0.30;;;;;;;12.31;100.00;102784.16;5072537;28;20986;-69
2021/10/08 07:21:04;;;;;;;0.50;0.50;;;;;;;12.33;100.00;102803.75;5072547;28;20483;-69
2021/10/08 07:23:33;;;;;;;0.40;0.30;;;;;;;12.33;100.00;102801.03;5072582;28;20532;-69
2021/10/08 07:25:59;;;;;;;0.40;0.30;;;;;;;12.30;100.00;102796.09;5072730;28;20437;-68
2021/10/08 07:28:26;;;;;;;0.70;0.70;;;;;;;12.36;100.00;102796.97;5072718;28;20461;-69
2021/10/08 07:30:53;;;;;;;2.20;2.10;;;;;;;12.28;100.00;102798.25;5072709;28;20452;-69
2021/10/08 07:33:20;;;;;;;0.40;0.30;;;;;;;12.28;100.00;102795.53;5074249;28;20476;-69
2021/10/08 07:35:48;;;;;;;0.50;0.30;;;;;;;12.41;100.00;102794.31;5076150;28;20985;-69
2021/10/08 07:38:14;;;;;;;0.40;0.30;;;;;;;12.47;100.00;102795.97;5076394;28;20514;-69
2021/10/08 07:40:41;;;;;;;0.40;0.30;;;;;;;12.50;100.00;102791.94;5076397;28;20444;-69
2021/10/08 07:43:07;;;;;;;0.40;0.30;;;;;;;12.48;100.00;102797.59;5076041;28;21011;-68
2021/10/08 07:45:34;;;;;;;0.40;0.30;;;;;;;12.58;100.00;102799.63;5076013;28;20441;-69
2021/10/08 07:48:00;;;;;;;0.40;0.30;;;;;;;12.63;100.00;102803.19;5076056;28;20858;-70
2021/10/08 07:50:27;;;;;;;0.40;0.30;;;;;;;12.68;100.00;102794.25;5076092;28;20472;-70
2021/10/08 07:52:55;;;;;;;0.40;0.30;;;;;;;12.77;100.00;102792.69;5075894;28;20461;-70
2021/10/08 07:55:22;;;;;;;0.40;0.30;;;;;;;12.91;100.00;102803.09;5076101;28;20444;-70
2021/10/08 07:57:48;;;;;;;1.47;1.37;;;;;;;13.05;100.00;102794.22;5075723;28;20441;-70
2021/10/08 08:00:15;;;;;;;0.40;0.20;;;;;;;13.12;100.00;102797.53;5075868;28;20468;-69
2021/10/08 08:02:42;;;;;;;5.80;2.83;;;;;;;13.26;100.00;102800.63;5076174;28;20434;-70
2021/10/08 08:05:08;;;;;;;0.40;0.30;;;;;;;13.35;100.00;102799.03;5075950;28;20441;-70
2021/10/08 08:07:35;;;;;;;0.40;0.30;;;;;;;13.35;100.00;102804.47;5075418;28;20827;-70
2021/10/08 08:10:04;;;;;;;0.50;0.40;;;;;;;13.41;100.00;102801.78;5075720;28;20461;-69
2021/10/08 08:12:30;;;;;;;0.40;0.30;;;;;;;13.46;100.00;102804.50;5075823;28;20445;-69
2021/10/08 08:14:57;;;;;;;2.23;2.13;;;;;;;13.56;100.00;102799.13;5075731;28;20441;-70
2021/10/08 08:17:23;;;;;;;0.40;0.30;;;;;;;13.58;100.00;102813.28;5075714;28;20437;-69
2021/10/08 08:19:50;;;;;;;0.40;0.20;;;;;;;13.51;98.96;102810.00;5075593;28;20809;-70
2021/10/08 08:22:16;;;;;;;0.40;0.30;;;;;;;13.36;99.05;102806.09;5075423;28;20449;-70
2021/10/08 08:24:42;;;;;;;0.40;0.30;;;;;;;13.31;98.46;102808.00;5075317;28;20930;-69
2021/10/08 08:27:10;;;;;;;0.50;0.30;;;;;;;13.21;97.95;102814.19;5075444;28;20477;-69
2021/10/08 08:29:37;;;;;;;0.40;0.30;;;;;;;13.12;97.60;102822.03;5075382;28;20476;-70
2021/10/08 08:32:04;;;;;;;0.40;0.30;;;;;;;13.06;97.86;102812.19;5075412;28;20452;-70
2021/10/08 08:34:30;;;;;;;0.40;0.20;;;;;;;12.95;98.06;102815.09;5075390;28;20547;-69
2021/10/08 08:36:57;;;;;;;0.40;0.20;;;;;;;12.86;99.17;102823.75;5075356;28;20444;-69
2021/10/08 08:39:23;;;;;;;0.40;0.20;;;;;;;12.86;100.00;102818.31;5075206;28;20465;-69
2021/10/08 08:41:50;;;;;;;0.50;0.40;;;;;;;12.87;100.00;102825.38;5075237;28;20441;-69
2021/10/08 08:44:18;;;;;;;0.40;0.30;;;;;;;12.90;100.00;102818.63;5074886;28;20436;-69
2021/10/08 08:46:45;;;;;;;0.40;0.20;;;;;;;12.95;100.00;102805.03;5075086;28;20481;-70
2021/10/08 08:49:11;;;;;;;0.40;0.20;;;;;;;13.03;100.00;102812.72;5074963;28;20504;-69
2021/10/08 08:51:38;;;;;;;1.90;1.80;;;;;;;13.07;100.00;102805.66;5075264;28;20464;-69
2021/10/08 08:54:07;;;;;;;0.40;0.30;;;;;;;13.10;100.00;102807.03;5074676;28;20962;-69
2021/10/08 08:56:34;;;;;;;0.40;0.20;;;;;;;13.18;100.00;102808.44;5074900;28;20437;-69
2021/10/08 08:59:02;;;;;;;0.40;0.30;;;;;;;13.23;100.00;102811.22;5074795;28;20485;-69
2021/10/08 09:01:30;;;;;;;0.40;0.27;;;;;;;13.21;100.00;102808.72;5074846;28;20441;-70
2021/10/08 09:04:04;;;;;;;1.33;1.23;;;;;;;13.29;100.00;102805.53;5074836;28;20445;-70
2021/10/08 09:06:31;;;;;;;2.60;2.40;;;;;;;13.38;100.00;102805.88;5074773;28;20430;-70
2021/10/08 09:08:58;;;;;;;0.40;0.20;;;;;;;13.42;100.00;102803.44;5074321;28;20464;-70
2021/10/08 09:11:36;;;;;;;0.40;0.20;;;;;;;13.46;100.00;102801.78;5074650;28;20483;-70
2021/10/08 09:14:15;;;;;;;0.40;0.30;;;;;;;13.54;100.00;102804.81;5074643;28;20783;-70
2021/10/08 09:17:05;;;;;;;0.40;0.30;;;;;;;13.66;100.00;102804.59;5074463;28;20432;-70
2021/10/08 09:19:46;;;;;;;1.47;1.40;;;;;;;13.78;100.00;102797.03;5074366;28;20472;-70
2021/10/08 09:22:13;;;;;;;0.50;0.40;;;;;;;13.86;100.00;102801.16;5074026;28;20441;-70
2021/10/08 09:24:39;;;;;;;0.40;0.30;;;;;;;13.95;100.00;102799.53;5074379;28;20460;-70
2021/10/08 09:27:09;;;;;;;0.40;0.30;;;;;;;14.12;100.00;102799.25;5074248;28;20485;-70
2021/10/08 09:29:36;;;;;;;0.40;0.30;;;;;;;14.17;100.00;102796.56;5074188;28;20492;-70
2021/10/08 09:32:04;;;;;;;0.40;0.30;;;;;;;14.22;98.25;102799.28;5074244;28;20472;-70
2021/10/08 09:34:31;;;;;;;0.40;0.30;;;;;;;14.35;97.74;102796.03;5074201;28;20444;-70
2021/10/08 09:37:00;;;;;;;0.40;0.30;;;;;;;14.38;97.36;102803.66;5074116;28;20476;-70
2021/10/08 09:39:29;;;;;;;0.40;0.20;;;;;;;14.37;92.20;102799.28;5074219;28;20497;-70
2021/10/08 09:41:59;;;;;;;0.40;0.30;;;;;;;14.54;91.92;102793.59;5074000;28;20445;-70
2021/10/08 09:44:27;;;;;;;0.40;0.20;;;;;;;14.61;89.69;102798.81;5073677;28;20927;-69
2021/10/08 09:47:09;;;;;;;0.40;0.20;;;;;;;14.73;88.58;102799.31;5073862;28;20498;-70
2021/10/08 09:49:36;;;;;;;0.40;0.30;;;;;;;14.79;86.92;102791.97;5073944;28;20461;-70
2021/10/08 09:52:18;;;;;;;0.40;0.20;;;;;;;14.88;85.58;102788.38;5073517;28;20942;-70
2021/10/08 09:54:49;;;;;;;0.40;0.30;;;;;;;15.03;85.09;102792.19;5073782;28;20793;-69
2021/10/08 09:57:15;;;;;;;0.40;0.30;;;;;;;15.02;82.50;102785.09;5073188;28;20472;-70
2021/10/08 09:59:41;;;;;;;0.40;0.30;;;;;;;15.16;83.20;102794.31;5073643;28;20865;-70
2021/10/08 10:02:10;;;;;;;0.40;0.30;;;;;;;15.31;82.46;102794.25;5073378;28;20946;-70
2021/10/08 10:04:51;;;;;;;2.80;2.60;;;;;;;15.35;78.05;102789.88;5073610;28;20460;-70
2021/10/08 10:07:20;;;;;;;0.40;0.20;;;;;;;15.40;76.19;102783.56;5073507;28;20488;-70
2021/10/08 10:09:48;;;;;;;0.40;0.30;;;;;;;15.54;75.93;102789.28;5073456;28;20462;-70
2021/10/08 10:12:16;;;;;;;0.40;0.30;;;;;;;15.62;74.92;102780.47;5073508;28;20448;-70
2021/10/08 10:14:44;;;;;;;0.40;0.20;;;;;;;15.68;74.40;102779.41;5073468;28;20445;-70
2021/10/08 10:17:14;;;;;;;0.40;0.30;;;;;;;15.72;73.17;102775.00;5073208;28;20927;-70
2021/10/08 10:19:43;;;;;;;0.40;0.20;;;;;;;15.73;71.51;102776.63;5073359;28;20473;-70
2021/10/08 10:22:14;;;;;;;0.40;0.20;;;;;;;15.67;70.81;102775.03;5073294;28;20532;-71
2021/10/08 10:24:43;;;;;;;0.40;0.30;;;;;;;15.68;69.96;102773.13;5073387;28;20422;-70
2021/10/08 10:27:11;;;;;;;0.50;0.40;;;;;;;15.71;70.04;102772.53;5073253;28;20845;-70
2021/10/08 10:29:38;;;;;;;0.40;0.30;;;;;;;15.75;69.63;102774.41;5073212;28;20873;-70
2021/10/08 10:32:06;;;;;;;0.40;0.20;;;;;;;15.84;68.72;102778.19;5073215;28;20445;-70
2021/10/08 10:34:35;;;;;;;0.40;0.30;;;;;;;15.94;69.23;102774.59;5073228;28;20448;-70
2021/10/08 10:37:03;;;;;;;1.90;1.80;;;;;;;16.08;68.37;102778.31;5073212;28;20824;-70
2021/10/08 10:39:29;;;;;;;0.40;0.30;;;;;;;16.23;68.72;102771.91;5073106;28;20457;-70
2021/10/08 10:42:16;;;;;;;0.40;0.30;;;;;;;16.39;65.11;102765.22;5073152;28;20448;-70
2021/10/08 10:45:08;;;;;;;0.40;0.30;;;;;;;16.55;65.17;102767.81;5073239;28;20429;-70
2021/10/08 10:47:37;;;;;;;0.40;0.30;;;;;;;16.66;61.82;102769.38;5070812;28;20868;-70
2021/10/08 10:50:18;;;;;;;0.40;0.30;;;;;;;16.85;61.57;102759.34;5073280;28;20488;-70
2021/10/08 10:52:48;;;;;;;0.40;0.20;;;;;;;17.00;59.23;102773.97;5073047;28;20430;-71
2021/10/08 10:55:15;;;;;;;0.40;0.20;;;;;;;16.98;57.21;102767.97;5073075;28;20535;-71
2021/10/08 10:57:57;;;;;;;0.40;0.30;;;;;;;17.17;59.04;102766.09;5073063;28;20438;-68
2021/10/08 11:00:32;;;;;;;0.40;0.30;;;;;;;17.31;58.35;102766.19;5072970;28;20465;-68
2021/10/08 11:03:08;;;;;;;0.40;0.30;;;;;;;17.52;57.73;102766.75;5073037;28;20429;-70
2021/10/08 11:05:38;;;;;;;0.40;0.20;;;;;;;18.00;56.51;102764.72;5072989;28;20433;-69
2021/10/08 11:08:11;;;;;;;0.40;0.30;;;;;;;18.74;55.45;102766.81;5075766;28;20460;-70
2021/10/08 11:10:38;;;;;;;0.40;0.20;;;;;;;19.48;52.91;102762.03;5076919;28;20449;-70
2021/10/08 11:13:27;;;;;;;0.40;0.30;;;;;;;20.72;51.18;102763.47;5076857;28;20946;-70
2021/10/08 11:15:55;;;;;;;0.40;0.30;;;;;;;21.58;49.73;102768.47;5076863;28;20456;-70
2021/10/08 11:18:39;;;;;;;0.40;0.30;;;;;;;22.40;46.98;102772.19;5076738;28;20444;-71
2021/10/08 11:21:07;;;;;;;0.40;0.30;;;;;;;23.23;45.37;102770.94;5076486;28;20933;-70